Terminal Aerodrome Forecast
Issued by NWS

Home | Current Version | Previous Version | Text Only | Print | Product List | Glossary On
Versions: 1 2 3 4 5 6 7 8 9 10 11 12 13
000
FTUS45 KRIW 162320
TAFCOD
TAF
KCOD 162320Z 1700/1724 12007KT P6SM SCT250
     FM170400 26014G24KT P6SM SCT250
     FM171000 25017G27KT P6SM SCT250
     FM171400 27010G20KT P6SM SCT100 SCT250
      AMD LTD TO CLD VIS AND WIND=

USA.gov is the U.S. government's official web portal to all federal, state and local government web resources and services.